Time;durP1;ratioP1;P1;durP2;ratioP2;P2;SDS_P1;SDS_P2;PMS_P1;PMS_P2;Temp;Humidity;BMP_temperature;BMP_pressure;BME280_temperature;BME280_humidity;BME280_pressure;Samples;Min_cycle;Max_cycle;Signal;HPM_P1;HPM_P2
2021/01/13 00:02:07;;;;;;;15.57;11.07;;;;;;;-2.61;82.92;94928.28;4995185;28;20026;-91
2021/01/13 00:04:33;;;;;;;17.98;11.45;;;;;;;-2.78;82.48;94901.59;4994320;28;20064;-91
2021/01/13 00:06:59;;;;;;;15.82;11.80;;;;;;;-2.47;81.89;94957.28;4992786;28;20044;-91
2021/01/13 00:09:24;;;;;;;15.02;11.07;;;;;;;-2.55;82.18;94945.28;4978903;28;20053;-91
2021/01/13 00:11:57;;;;;;;16.98;12.32;;;;;;;-2.74;82.59;94915.56;4977473;28;20023;-90
2021/01/13 00:14:23;;;;;;;17.52;11.75;;;;;;;-2.41;82.26;94971.63;4977666;28;20069;-90
2021/01/13 00:16:49;;;;;;;17.05;11.82;;;;;;;-2.34;82.52;94979.50;4996162;28;20073;-90
2021/01/13 00:19:15;;;;;;;16.80;11.57;;;;;;;-2.28;82.22;94988.50;4996934;28;20031;-91
2021/01/13 00:21:40;;;;;;;17.70;12.70;;;;;;;-2.72;82.45;94918.56;4993008;28;20073;-91
2021/01/13 00:24:07;;;;;;;17.77;11.82;;;;;;;-2.80;82.38;94916.44;4978433;28;20055;-90
2021/01/13 00:26:32;;;;;;;14.95;11.45;;;;;;;-2.57;82.67;94942.25;4983751;28;20129;-90
2021/01/13 00:28:57;;;;;;;17.02;11.48;;;;;;;-2.63;82.06;94939.31;4982953;28;20391;-90
2021/01/13 00:31:23;;;;;;;17.52;11.68;;;;;;;-2.61;82.10;94937.03;4994430;28;20026;-91
2021/01/13 00:33:49;;;;;;;18.77;12.10;;;;;;;-2.22;82.60;94994.13;4985053;28;20331;-90
2021/01/13 00:36:22;;;;;;;14.98;10.88;;;;;;;-2.44;82.11;94959.16;4984947;28;20027;-90
2021/01/13 00:38:48;;;;;;;15.90;11.32;;;;;;;-2.70;82.00;94928.81;4977858;28;20058;-90
2021/01/13 00:41:14;;;;;;;17.05;12.15;;;;;;;-2.30;81.84;94996.13;4977369;28;20129;-92
2021/01/13 00:43:40;;;;;;;17.52;12.00;;;;;;;-2.33;82.01;95006.84;4978576;28;20067;-90
2021/01/13 00:46:05;;;;;;;18.67;12.45;;;;;;;-2.65;82.45;94946.97;4985630;28;20034;-91
2021/01/13 00:48:31;;;;;;;17.10;12.02;;;;;;;-2.24;82.14;94997.16;4995146;28;20506;-91
2021/01/13 00:50:56;;;;;;;17.58;11.98;;;;;;;-2.47;81.73;94970.59;4996488;28;20411;-90
2021/01/13 00:53:21;;;;;;;16.70;11.20;;;;;;;-2.41;81.03;94953.75;4988653;28;20140;-90
2021/01/13 00:55:47;;;;;;;15.95;11.60;;;;;;;-2.56;81.94;94906.53;4998347;28;20035;-91
2021/01/13 00:58:12;;;;;;;16.40;12.15;;;;;;;-2.35;81.73;94938.06;4995821;28;20445;-90
2021/01/13 01:00:37;;;;;;;16.63;11.90;;;;;;;-2.11;82.38;94976.78;4996097;28;20041;-90
2021/01/13 01:03:03;;;;;;;16.67;11.45;;;;;;;-2.25;81.64;94963.75;4987310;28;20019;-91
2021/01/13 01:05:28;;;;;;;17.30;12.40;;;;;;;-2.14;81.57;94966.22;4980699;28;20430;-91
2021/01/13 01:07:54;;;;;;;17.35;11.90;;;;;;;-2.21;81.28;94969.00;4980815;28;20030;-90
2021/01/13 01:10:28;;;;;;;17.05;11.38;;;;;;;-2.12;82.01;94974.56;4980933;28;20026;-91
2021/01/13 01:12:53;;;;;;;17.15;12.02;;;;;;;-1.99;81.26;94994.06;4996426;28;20038;-91
2021/01/13 01:15:19;;;;;;;19.58;13.75;;;;;;;-2.20;81.58;94967.84;4990823;28;20022;-90
2021/01/13 01:17:44;;;;;;;20.40;13.88;;;;;;;-2.22;81.50;94962.19;5000010;28;20062;-91
2021/01/13 01:20:10;;;;;;;20.90;14.18;;;;;;;-2.18;82.25;94955.66;4987127;28;20423;-90
2021/01/13 01:22:58;;;;;;;22.63;15.13;;;;;;;-1.94;81.14;94993.59;4980803;28;20033;-91
2021/01/13 01:25:26;;;;;;;19.90;14.10;;;;;;;-2.35;80.82;94942.66;4995863;28;20023;-91
2021/01/13 01:27:55;;;;;;;23.27;15.23;;;;;;;-1.78;80.98;95010.81;4999833;28;20054;-90
2021/01/13 01:30:22;;;;;;;20.60;14.70;;;;;;;-2.24;80.64;94953.84;4993556;28;20051;-90
2021/01/13 01:32:47;;;;;;;18.30;12.23;;;;;;;-1.76;79.62;95019.13;4988688;28;20039;-91
2021/01/13 01:35:13;;;;;;;16.75;12.20;;;;;;;-2.85;79.85;94840.59;4992750;28;20034;-90
2021/01/13 01:37:40;;;;;;;16.50;11.90;;;;;;;-1.74;79.71;95001.59;4992669;28;20295;-91
2021/01/13 01:40:09;;;;;;;17.65;12.25;;;;;;;-1.68;79.69;95015.19;4980182;28;20374;-91
2021/01/13 01:42:35;;;;;;;16.92;12.23;;;;;;;-1.84;79.45;94997.22;4981148;28;20023;-90
2021/01/13 01:45:03;;;;;;;16.73;11.55;;;;;;;-2.12;79.85;94950.59;4997808;28;20030;-91
2021/01/13 01:48:02;;;;;;;16.88;11.68;;;;;;;-1.64;79.21;95016.63;4999535;28;20109;-91
2021/01/13 01:50:33;;;;;;;15.52;10.90;;;;;;;-1.71;79.46;95019.41;4999497;28;20018;-91
2021/01/13 01:53:14;;;;;;;17.67;11.98;;;;;;;-1.64;79.95;95027.28;4999445;28;20094;-90
2021/01/13 01:56:00;;;;;;;17.00;12.32;;;;;;;-1.77;79.78;95021.03;4983594;28;20218;-91
2021/01/13 01:58:27;;;;;;;18.30;12.52;;;;;;;-1.77;79.96;95014.97;4985891;28;20034;-90
2021/01/13 02:00:55;;;;;;;16.58;12.00;;;;;;;-2.12;80.52;94942.63;4982849;28;20027;-91
2021/01/13 02:03:23;;;;;;;17.63;12.55;;;;;;;-1.77;80.28;94983.03;4987994;28;20022;-91
2021/01/13 02:05:56;;;;;;;17.80;11.90;;;;;;;-1.96;80.30;94971.97;5000102;28;20027;-91
2021/01/13 02:08:25;;;;;;;17.20;11.30;;;;;;;-1.75;81.36;95004.69;4979959;28;20023;-90
2021/01/13 02:10:51;;;;;;;17.90;12.00;;;;;;;-2.11;80.77;94960.09;4987886;28;20026;-90
2021/01/13 02:13:19;;;;;;;16.15;11.82;;;;;;;-1.89;81.30;95011.75;4982772;28;20049;-91
2021/01/13 02:15:46;;;;;;;15.10;11.82;;;;;;;-2.14;81.33;94966.22;4990309;28;20060;-90
2021/01/13 02:18:15;;;;;;;15.65;11.30;;;;;;;-2.18;81.43;94984.16;4998828;28;20057;-91
2021/01/13 02:20:44;;;;;;;15.52;11.15;;;;;;;-1.98;81.33;95008.13;4995300;28;20145;-90
2021/01/13 02:23:29;;;;;;;15.25;10.82;;;;;;;-2.28;81.41;94955.84;4998930;28;20045;-91
2021/01/13 02:26:17;;;;;;;16.48;11.93;;;;;;;-2.15;81.24;94962.81;4999045;28;20029;-91
2021/01/13 02:28:55;;;;;;;18.10;11.77;;;;;;;-1.92;80.77;94999.28;4998673;28;20038;-91
2021/01/13 02:31:33;;;;;;;14.07;10.82;;;;;;;-1.81;80.91;95016.94;4997803;28;20486;-92
2021/01/13 02:34:24;;;;;;;14.82;11.30;;;;;;;-1.82;81.02;95020.78;4986093;28;20034;-91
2021/01/13 02:37:08;;;;;;;14.82;10.98;;;;;;;-1.75;80.06;95024.06;4979105;28;20038;-91
2021/01/13 02:39:35;;;;;;;15.88;11.23;;;;;;;-1.73;80.44;95037.72;4987723;28;20034;-91
2021/01/13 02:42:01;;;;;;;16.50;11.70;;;;;;;-1.77;80.71;95039.69;4979030;28;20015;-91
2021/01/13 02:44:30;;;;;;;16.52;11.40;;;;;;;-2.02;80.82;94997.56;4986401;28;20031;-91
2021/01/13 02:46:55;;;;;;;15.82;11.90;;;;;;;-1.52;80.74;95046.47;4998567;28;20315;-91
2021/01/13 02:53:04;;;;;;;16.20;11.85;;;;;;;-1.52;81.22;95035.81;4999169;28;20451;-91
2021/01/13 02:55:36;;;;;;;15.23;11.07;;;;;;;-2.00;80.29;94981.94;4998283;28;20025;-91
2021/01/13 02:58:08;;;;;;;17.05;11.82;;;;;;;-1.43;81.11;95060.00;4998354;28;20441;-91
2021/01/13 03:00:36;;;;;;;18.23;12.45;;;;;;;-1.48;81.12;95055.88;4999028;28;20414;-90
2021/01/13 03:03:01;;;;;;;17.63;12.43;;;;;;;-1.87;81.23;95001.44;4978884;28;20431;-91
2021/01/13 03:05:30;;;;;;;17.65;12.35;;;;;;;-1.86;80.75;95024.25;4978665;28;20062;-90
2021/01/13 03:07:57;;;;;;;21.52;13.30;;;;;;;-1.48;80.87;95065.78;4978357;28;20022;-91
2021/01/13 03:10:27;;;;;;;22.17;13.90;;;;;;;-1.64;80.43;95066.47;4994624;28;20034;-91
2021/01/13 03:12:59;;;;;;;21.48;13.55;;;;;;;-1.83;80.25;95048.56;4978347;28;20411;-91
2021/01/13 03:15:27;;;;;;;20.55;13.45;;;;;;;-1.97;80.01;95037.00;4995696;28;20037;-90
2021/01/13 03:18:17;;;;;;;17.52;12.18;;;;;;;-1.77;80.45;95074.28;4988368;28;20414;-91
2021/01/13 03:21:06;;;;;;;17.90;12.38;;;;;;;-1.74;81.74;95075.41;4978373;28;20035;-90
2021/01/13 03:23:44;;;;;;;16.20;12.25;;;;;;;-1.93;80.95;95035.03;4978357;28;20033;-91
2021/01/13 03:26:15;;;;;;;15.55;11.82;;;;;;;-1.69;80.94;95078.34;4978433;28;20030;-92
2021/01/13 03:28:41;;;;;;;18.20;13.05;;;;;;;-1.62;81.09;95064.13;4978191;28;20077;-92
2021/01/13 03:31:10;;;;;;;17.63;12.57;;;;;;;-2.07;81.12;95006.00;4978296;28;20027;-91
2021/01/13 03:33:57;;;;;;;16.83;12.60;;;;;;;-1.61;80.51;95068.31;4981853;28;20484;-91
2021/01/13 03:36:52;;;;;;;17.55;12.27;;;;;;;-1.83;80.81;95021.94;4997709;28;20037;-91
2021/01/13 03:39:21;;;;;;;16.77;12.23;;;;;;;-1.84;80.61;95013.19;4988787;28;20323;-91
2021/01/13 03:41:52;;;;;;;17.05;12.23;;;;;;;-1.58;80.27;95036.28;4982507;28;20030;-91
2021/01/13 03:44:34;;;;;;;23.10;13.98;;;;;;;-1.62;80.48;95037.50;4982883;28;20035;-92
2021/01/13 03:47:08;;;;;;;22.58;15.75;;;;;;;-1.64;79.58;95053.16;4997475;28;20027;-91
2021/01/13 03:49:40;;;;;;;19.30;14.13;;;;;;;-1.76;80.10;95022.53;4997299;28;20458;-90
2021/01/13 03:52:12;;;;;;;20.83;14.05;;;;;;;-1.98;80.32;95002.81;4983162;28;20427;-92
2021/01/13 03:54:37;;;;;;;21.02;14.35;;;;;;;-2.05;80.57;95008.25;4977965;28;20319;-91
2021/01/13 03:57:04;;;;;;;19.85;13.98;;;;;;;-1.65;81.45;95060.41;4978339;28;20027;-92
2021/01/13 03:59:41;;;;;;;21.10;14.52;;;;;;;-1.96;80.87;95006.56;4989673;28;20030;-92
2021/01/13 04:02:07;;;;;;;23.52;15.52;;;;;;;-1.65;81.11;95063.06;4985206;28;20058;-91
2021/01/13 04:04:44;;;;;;;26.63;17.33;;;;;;;-1.64;81.01;95069.13;4984940;28;20034;-91
2021/01/13 04:07:13;;;;;;;23.02;15.82;;;;;;;-1.64;80.25;95055.81;4989700;28;20030;-91
2021/01/13 04:09:39;;;;;;;18.65;12.98;;;;;;;-1.72;80.75;95043.78;4996892;28;20053;-91
2021/01/13 04:12:11;;;;;;;21.42;14.73;;;;;;;-1.49;80.26;95069.59;4996882;28;20053;-91
2021/01/13 04:14:57;;;;;;;21.40;14.93;;;;;;;-1.52;80.45;95079.19;4989280;28;20441;-91
2021/01/13 04:17:24;;;;;;;18.13;14.05;;;;;;;-1.62;79.78;95064.13;4977579;28;20372;-90
2021/01/13 04:19:51;;;;;;;20.70;14.77;;;;;;;-1.62;80.28;95059.56;4992560;28;20018;-91
2021/01/13 04:22:18;;;;;;;22.23;15.82;;;;;;;-1.72;80.22;95068.50;4980186;28;20104;-91
2021/01/13 04:24:46;;;;;;;22.35;15.75;;;;;;;-1.58;79.65;95080.81;4980688;28;20019;-90
2021/01/13 04:27:15;;;;;;;24.35;16.33;;;;;;;-1.77;80.09;95058.31;4977143;28;20030;-91
2021/01/13 04:29:41;;;;;;;21.95;15.25;;;;;;;-1.87;81.24;95044.03;4978124;28;20058;-91
2021/01/13 04:32:07;;;;;;;21.00;14.95;;;;;;;-1.87;79.57;95067.25;4978234;28;20494;-91
2021/01/13 04:34:33;;;;;;;21.38;14.30;;;;;;;-1.99;81.19;95033.25;4977314;28;20121;-91
2021/01/13 04:37:02;;;;;;;22.42;15.43;;;;;;;-1.83;80.86;95059.19;4993157;28;20506;-91
2021/01/13 04:39:29;;;;;;;24.05;15.82;;;;;;;-1.86;81.46;95050.88;4996785;28;20056;-92
2021/01/13 04:41:59;;;;;;;12.63;7.65;;;;;;;-1.32;79.00;95092.50;4990114;28;20025;-91
2021/01/13 04:44:30;;;;;;;11.38;6.88;;;;;;;-1.32;77.76;95066.63;4977249;28;20030;-91
2021/01/13 04:47:04;;;;;;;11.05;7.47;;;;;;;-1.38;77.67;95038.94;4977449;28;20031;-91
2021/01/13 04:49:32;;;;;;;13.27;7.75;;;;;;;-1.00;77.45;95097.22;4978168;28;20077;-91
2021/01/13 04:52:04;;;;;;;11.63;7.80;;;;;;;-1.42;78.66;95040.94;4993737;28;20034;-91
2021/01/13 04:54:30;;;;;;;14.85;10.48;;;;;;;-1.11;79.12;95108.09;4977398;28;20096;-91
2021/01/13 04:56:56;;;;;;;16.17;11.18;;;;;;;-1.03;79.68;95119.34;4983877;28;20410;-91
2021/01/13 04:59:30;;;;;;;12.52;8.98;;;;;;;-0.96;78.51;95107.78;4988540;28;20431;-90
2021/01/13 05:02:07;;;;;;;11.77;9.13;;;;;;;-0.87;78.90;95105.31;4977037;28;20323;-90
2021/01/13 05:04:56;;;;;;;11.02;7.75;;;;;;;-0.87;77.70;95111.41;4976974;28;20088;-90
2021/01/13 05:07:41;;;;;;;10.65;7.68;;;;;;;-1.03;76.99;95073.28;4978688;28;20312;-90
2021/01/13 05:10:15;;;;;;;11.07;6.97;;;;;;;-0.78;76.90;95102.84;4996292;28;20478;-90
2021/01/13 05:12:43;;;;;;;11.80;6.82;;;;;;;-0.84;76.36;95093.84;4997211;28;20022;-90
2021/01/13 05:15:14;;;;;;;9.40;6.40;;;;;;;-1.03;76.23;95054.63;4980507;28;20034;-90
2021/01/13 05:17:57;;;;;;;8.60;7.00;;;;;;;-1.16;76.14;95046.50;4988822;28;20030;-90
2021/01/13 05:20:27;;;;;;;10.00;7.63;;;;;;;-1.01;76.23;95082.38;4995289;28;20030;-90
2021/01/13 05:22:54;;;;;;;13.43;9.82;;;;;;;-1.00;76.19;95091.88;4977021;28;20062;-91
2021/01/13 05:25:44;;;;;;;16.13;11.20;;;;;;;-0.84;76.94;95110.59;4983075;28;20045;-91
2021/01/13 05:28:12;;;;;;;11.63;8.50;;;;;;;-1.00;76.05;95070.53;4976856;28;20023;-91
2021/01/13 05:30:43;;;;;;;11.68;8.02;;;;;;;-0.92;75.34;95079.88;4978536;28;20369;-89
2021/01/13 05:33:10;;;;;;;;;;;;;;;-0.60;75.17;95116.53;4987475;28;20022;-89
2021/01/13 05:35:38;;;;;;;12.57;7.80;;;;;;;-1.29;75.38;95024.31;4980255;28;20191;-91
2021/01/13 05:38:17;;;;;;;12.77;8.93;;;;;;;-0.67;76.52;95135.38;4989546;28;20053;-90
2021/01/13 05:40:52;;;;;;;13.50;9.60;;;;;;;-1.09;76.67;95089.75;4984563;28;20046;-90
2021/01/13 05:43:20;;;;;;;9.73;7.30;;;;;;;-0.73;76.68;95145.03;4992468;28;20019;-92
2021/01/13 05:45:46;;;;;;;8.65;6.70;;;;;;;-0.70;75.30;95151.44;4997131;28;20109;-92
2021/01/13 05:48:12;;;;;;;16.35;7.57;;;;;;;-0.63;75.55;95160.06;4982101;28;20033;-92
2021/01/13 05:50:37;;;;;;;10.00;6.57;;;;;;;-0.93;75.00;95125.63;4980162;28;20027;-92
2021/01/13 05:53:05;;;;;;;8.57;6.25;;;;;;;-0.76;74.22;95145.84;4979884;28;20049;-93
2021/01/13 05:55:31;;;;;;;7.05;5.57;;;;;;;-0.85;73.08;95148.34;4980013;28;20490;-93
2021/01/13 05:57:58;;;;;;;7.80;5.53;;;;;;;-1.06;73.95;95110.25;4982649;28;20062;-92
2021/01/13 06:00:26;;;;;;;9.40;6.43;;;;;;;-0.67;74.28;95172.72;4982371;28;20095;-93
2021/01/13 06:03:03;;;;;;;6.93;5.32;;;;;;;-0.70;73.30;95165.53;4980202;28;20019;-92
2021/01/13 06:05:31;;;;;;;7.82;5.55;;;;;;;-0.93;73.92;95133.63;4980184;28;20042;-92
2021/01/13 06:08:01;;;;;;;7.53;5.25;;;;;;;-0.81;71.92;95151.66;4979876;28;20052;-92
2021/01/13 06:10:34;;;;;;;7.20;5.20;;;;;;;-0.55;72.73;95164.06;4991146;28;20026;-91
2021/01/13 06:13:03;;;;;;;6.80;4.88;;;;;;;-0.74;70.92;95142.78;5004801;28;20026;-92
2021/01/13 06:15:29;;;;;;;4.85;3.80;;;;;;;-0.62;71.10;95147.47;5002058;28;20430;-92
2021/01/13 06:17:56;;;;;;;5.25;4.10;;;;;;;-0.50;69.48;95194.09;4985888;28;20038;-92
2021/01/13 06:20:24;;;;;;;5.32;4.03;;;;;;;-0.83;70.28;95165.41;4982825;28;20034;-90
2021/01/13 06:22:51;;;;;;;8.57;4.43;;;;;;;-0.01;78.97;95211.69;4985205;28;20018;-93
2021/01/13 06:25:27;;;;;;;7.28;3.58;;;;;;;-0.09;71.08;95189.00;4985227;28;20038;-92
2021/01/13 06:28:23;;;;;;;5.43;3.67;;;;;;;-0.01;68.72;95213.63;4994930;28;20453;-92
2021/01/13 06:31:01;;;;;;;4.45;2.90;;;;;;;-0.46;100.00;95194.78;4998786;28;20038;-93
2021/01/13 06:33:34;;;;;;;9.60;3.70;;;;;;;-0.46;68.61;95194.78;4989215;28;20057;-93
2021/01/13 06:36:28;;;;;;;4.95;2.80;;;;;;;-0.35;66.79;95238.75;4982274;28;20031;-93
2021/01/13 06:38:57;;;;;;;7.22;3.00;;;;;;;-0.35;66.79;95238.75;4980801;28;20029;-95
2021/01/13 06:41:24;;;;;;;4.85;2.30;;;;;;;-145.61;100.00;68426.72;4982341;28;20419;-93
2021/01/13 06:44:17;;;;;;;3.90;2.50;;;;;;;-145.61;100.00;68426.72;4987158;28;20033;-92
2021/01/13 06:46:43;;;;;;;4.00;2.42;;;;;;;-145.61;100.00;68426.72;4991165;28;20035;-93
2021/01/13 06:49:15;;;;;;;3.80;2.67;;;;;;;-145.61;100.00;68426.72;5020850;28;20057;-96
2021/01/13 06:51:45;;;;;;;4.85;2.80;;;;;;;-145.61;100.00;68426.72;5012002;28;20037;-95
2021/01/13 06:54:13;;;;;;;6.22;3.20;;;;;;;-145.61;100.00;68426.72;4990159;28;20027;-94
2021/01/13 06:56:46;;;;;;;4.18;3.30;;;;;;;-0.45;65.67;95212.28;4986131;28;20026;-92
2021/01/13 06:59:13;;;;;;;5.43;4.20;;;;;;;-145.61;100.00;68426.72;4999866;28;20108;-93
2021/01/13 07:01:53;;;;;;;5.53;3.97;;;;;;;-145.61;100.00;68426.72;5004019;28;20303;-93
2021/01/13 07:04:20;;;;;;;3.83;2.33;;;;;;;-145.61;100.00;68426.72;5012504;28;20310;-93
2021/01/13 07:07:02;;;;;;;3.75;2.80;;;;;;;-145.61;100.00;68426.72;4998839;28;20030;-92
2021/01/13 07:09:37;;;;;;;5.22;2.30;;;;;;;-145.61;100.00;68426.72;4998874;28;20022;-94
2021/01/13 07:12:17;;;;;;;6.53;2.60;;;;;;;-145.61;100.00;68426.72;4998829;28;20107;-95
2021/01/13 07:14:45;;;;;;;7.55;2.95;;;;;;;-145.61;100.00;68426.72;4984140;28;20046;-93
2021/01/13 07:17:19;;;;;;;7.25;2.70;;;;;;;-145.61;100.00;68426.72;5008671;28;20113;-94
2021/01/13 07:19:47;;;;;;;4.47;2.38;;;;;;;-145.61;100.00;68426.72;5001690;28;20061;-94
2021/01/13 07:22:14;;;;;;;6.47;2.15;;;;;;;-145.61;100.00;68426.72;5001238;28;20029;-95
2021/01/13 07:24:42;;;;;;;4.68;1.80;;;;;;;-145.61;100.00;68426.72;5001425;28;20369;-94
2021/01/13 07:27:08;;;;;;;7.85;2.20;;;;;;;-145.61;100.00;68426.72;5004286;28;20026;-96
2021/01/13 07:29:34;;;;;;;11.70;3.22;;;;;;;-145.61;100.00;68426.72;5008477;28;20050;-95
2021/01/13 07:31:59;;;;;;;5.40;2.88;;;;;;;-145.61;100.00;68426.72;5007591;28;20114;-95
2021/01/13 07:34:42;;;;;;;3.28;2.20;;;;;;;-145.61;100.00;68426.72;5004067;28;20027;-95
2021/01/13 07:37:16;;;;;;;3.90;1.70;;;;;;;-145.61;100.00;68426.72;5004465;28;20041;-96
2021/01/13 07:40:00;;;;;;;4.45;1.70;;;;;;;-145.61;100.00;68426.72;5001939;28;20079;-95
2021/01/13 07:42:42;;;;;;;6.30;2.35;;;;;;;-145.61;100.00;68426.72;5016624;28;20026;-95
2021/01/13 07:45:20;;;;;;;7.40;2.75;;;;;;;-145.61;100.00;68426.72;5003673;28;20087;-92
2021/01/13 07:48:13;;;;;;;8.63;3.58;;;;;;;-145.61;100.00;68426.72;5003843;28;20030;-92
2021/01/13 07:50:44;;;;;;;8.80;3.33;;;;;;;-145.61;100.00;68426.72;4991147;28;20031;-93
2021/01/13 07:53:22;;;;;;;4.70;2.97;;;;;;;-145.61;100.00;68426.72;5005859;28;20038;-94
2021/01/13 07:55:56;;;;;;;7.22;3.20;;;;;;;-145.61;100.00;68426.72;4990922;28;20031;-92
2021/01/13 07:58:35;;;;;;;8.38;3.63;;;;;;;-145.61;100.00;68426.72;4989523;28;20046;-94
2021/01/13 08:01:38;;;;;;;13.60;6.28;;;;;;;-145.61;100.00;68426.72;4979501;28;20031;-93
2021/01/13 08:04:42;;;;;;;12.57;6.50;;;;;;;-145.61;100.00;68426.72;4981583;28;20034;-92
2021/01/13 08:07:38;;;;;;;8.77;5.32;;;;;;;-145.61;100.00;68426.72;4998272;28;20076;-95
2021/01/13 08:10:06;;;;;;;10.23;4.72;;;;;;;-145.61;100.00;68426.72;4980333;28;20079;-93
2021/01/13 08:13:06;;;;;;;9.27;4.75;;;;;;;-145.61;100.00;68426.72;4993657;28;20352;-92
2021/01/13 08:15:50;;;;;;;11.60;5.70;;;;;;;-145.61;100.00;68426.72;4983492;28;20026;-92
2021/01/13 08:18:55;;;;;;;11.70;6.38;;;;;;;-145.61;100.00;68426.72;4987835;28;20037;-91
2021/01/13 08:21:24;;;;;;;10.85;5.05;;;;;;;-145.61;100.00;68426.72;4981884;28;20118;-91
2021/01/13 08:24:06;;;;;;;9.85;4.80;;;;;;;-145.61;100.00;68426.72;4996565;28;20381;-89
2021/01/13 08:26:33;;;;;;;12.90;6.35;;;;;;;-145.61;100.00;68426.72;4997441;28;20026;-90
2021/01/13 08:29:01;;;;;;;10.23;4.78;;;;;;;-145.61;100.00;68426.72;4982358;28;20430;-88
2021/01/13 08:31:28;;;;;;;5.43;2.90;;;;;;;-145.61;100.00;68426.72;4984113;28;20134;-89
2021/01/13 08:34:07;;;;;;;5.43;2.90;;;;;;;-145.61;100.00;68426.72;4996973;28;20035;-89
2021/01/13 08:36:37;;;;;;;6.10;2.50;;;;;;;-145.61;100.00;68426.72;4992791;28;20042;-89
2021/01/13 08:39:12;;;;;;;4.18;2.53;;;;;;;-145.61;100.00;68426.72;4997050;28;20319;-89
2021/01/13 08:41:39;;;;;;;3.67;2.28;;;;;;;-145.61;100.00;68426.72;4997872;28;20712;-88
2021/01/13 08:44:11;;;;;;;4.47;2.00;;;;;;;-145.61;100.00;68426.72;4991155;28;20418;-90
2021/01/13 08:46:44;;;;;;;3.22;2.65;;;;;;;-145.61;100.00;68426.72;4985408;28;20089;-90
2021/01/13 08:49:11;;;;;;;4.05;2.40;;;;;;;-145.61;100.00;68426.72;4991456;28;20030;-92
2021/01/13 08:51:36;;;;;;;2.85;2.05;;;;;;;-145.61;100.00;68426.72;4997593;28;20035;-92
2021/01/13 08:54:19;;;;;;;3.75;2.22;;;;;;;-145.61;100.00;68426.72;5001387;28;20034;-92
2021/01/13 08:56:56;;;;;;;9.23;3.58;;;;;;;-145.61;100.00;68426.72;4983469;28;20023;-92
2021/01/13 08:59:33;;;;;;;5.95;2.53;;;;;;;-145.61;100.00;68426.72;4985420;28;20038;-92
2021/01/13 09:02:05;;;;;;;14.23;4.68;;;;;;;-145.61;100.00;68426.72;4982934;28;20050;-91
2021/01/13 09:04:50;;;;;;;4.20;2.60;;;;;;;-145.61;100.00;68426.72;4980946;28;20129;-92
2021/01/13 09:07:21;;;;;;;5.20;2.42;;;;;;;-145.61;100.00;68426.72;4988769;28;20113;-91
2021/01/13 09:10:14;;;;;;;5.70;2.55;;;;;;;-145.61;100.00;68426.72;4991171;28;20081;-92
2021/01/13 09:12:42;;;;;;;8.50;2.92;;;;;;;-145.61;100.00;68426.72;4986250;28;20026;-91
2021/01/13 09:15:07;;;;;;;8.30;2.90;;;;;;;-145.61;100.00;68426.72;4993286;28;20057;-92
2021/01/13 09:17:37;;;;;;;6.45;2.70;;;;;;;-145.61;100.00;68426.72;4993379;28;20022;-91
2021/01/13 09:20:06;;;;;;;4.47;2.38;;;;;;;-145.61;100.00;68426.72;4994336;28;20022;-91
2021/01/13 09:23:03;;;;;;;3.45;2.10;;;;;;;-145.61;100.00;68426.72;4988280;28;20023;-90
2021/01/13 09:25:43;;;;;;;3.28;2.05;;;;;;;-145.61;100.00;68426.72;4989289;28;20089;-89
2021/01/13 09:28:15;;;;;;;3.05;1.73;;;;;;;-145.61;100.00;68426.72;5000216;28;20033;-90
2021/01/13 09:30:42;;;;;;;8.15;2.60;;;;;;;-145.61;100.00;68426.72;4993543;28;20034;-90
2021/01/13 09:33:07;;;;;;;4.32;2.33;;;;;;;-145.61;100.00;68426.72;4991649;28;20088;-90
2021/01/13 09:35:42;;;;;;;4.70;2.20;;;;;;;-145.61;100.00;68426.72;4993743;28;20042;-90
2021/01/13 09:38:09;;;;;;;6.35;2.60;;;;;;;-145.61;100.00;68426.72;4998771;28;20022;-90
2021/01/13 09:40:59;;;;;;;6.00;2.40;;;;;;;-145.61;100.00;68426.72;4982983;28;20407;-90
2021/01/13 09:43:29;;;;;;;4.57;2.13;;;;;;;-145.61;100.00;68426.72;4999362;28;20030;-89
2021/01/13 09:46:00;;;;;;;3.53;2.60;;;;;;;-145.61;100.00;68426.72;4994880;28;20335;-90
2021/01/13 09:48:28;;;;;;;5.40;2.90;;;;;;;-145.61;100.00;68426.72;4981723;28;20037;-89
2021/01/13 09:50:59;;;;;;;7.63;3.20;;;;;;;-145.61;100.00;68426.72;4994958;28;20026;-91
2021/01/13 09:53:33;;;;;;;5.35;2.83;;;;;;;-145.61;100.00;68426.72;4995407;28;20031;-90
2021/01/13 09:56:07;;;;;;;6.38;2.58;;;;;;;-145.61;100.00;68426.72;4984238;28;20041;-89
2021/01/13 09:58:43;;;;;;;3.78;2.40;;;;;;;-145.61;100.00;68426.72;4996249;28;20049;-91
2021/01/13 10:01:11;;;;;;;4.25;2.05;;;;;;;-145.61;100.00;68426.72;4988489;28;20073;-91
2021/01/13 10:03:38;;;;;;;3.47;2.20;;;;;;;-145.61;100.00;68426.72;4992805;28;20052;-90
2021/01/13 10:06:12;;;;;;;6.97;2.67;;;;;;;-145.61;100.00;68426.72;4987149;28;20034;-89
2021/01/13 10:08:53;;;;;;;3.95;2.20;;;;;;;-145.61;100.00;68426.72;4999489;28;20030;-90
2021/01/13 10:11:20;;;;;;;5.15;2.63;;;;;;;-145.61;100.00;68426.72;4988743;28;20042;-89
2021/01/13 10:14:02;;;;;;;4.03;1.88;;;;;;;-145.61;100.00;68426.72;4979833;28;20037;-91
2021/01/13 10:16:29;;;;;;;4.60;2.10;;;;;;;-145.61;100.00;68426.72;4992255;28;20049;-89
2021/01/13 10:18:57;;;;;;;3.38;2.20;;;;;;;-145.61;100.00;68426.72;4991603;28;20080;-91
2021/01/13 10:21:23;;;;;;;6.07;2.50;;;;;;;-145.61;100.00;68426.72;4985892;28;20034;-90
2021/01/13 10:23:50;;;;;;;2.85;2.20;;;;;;;-145.61;100.00;68426.72;4989609;28;21340;-89
2021/01/13 10:26:16;;;;;;;3.47;2.30;;;;;;;-145.61;100.00;68426.72;4997348;28;20069;-90
2021/01/13 10:28:43;;;;;;;5.05;2.70;;;;;;;-145.61;100.00;68426.72;4988704;28;20035;-91
2021/01/13 10:31:10;;;;;;;2.65;2.30;;;;;;;-145.61;100.00;68426.72;4997745;28;20050;-94
2021/01/13 10:33:45;;;;;;;6.10;2.83;;;;;;;-145.61;100.00;68426.72;4988044;28;20042;-89
2021/01/13 10:36:44;;;;;;;3.60;2.40;;;;;;;-145.61;100.00;68426.72;4996507;28;20038;-88
2021/01/13 10:39:09;;;;;;;5.38;2.88;;;;;;;-145.61;100.00;68426.72;4985363;28;21303;-88
2021/01/13 10:41:37;;;;;;;5.25;2.22;;;;;;;-145.61;100.00;68426.72;4994700;28;20034;-87
2021/01/13 10:44:04;;;;;;;3.33;2.00;;;;;;;-145.61;100.00;68426.72;4997419;28;20030;-88
2021/01/13 10:46:48;;;;;;;3.97;2.42;;;;;;;-145.61;100.00;68426.72;4989695;28;20736;-88
2021/01/13 10:49:55;;;;;;;4.15;2.20;;;;;;;-145.61;100.00;68426.72;4992850;28;20026;-88
2021/01/13 10:52:22;;;;;;;3.90;2.47;;;;;;;-145.61;100.00;68426.72;4997374;28;20030;-88
2021/01/13 10:55:20;;;;;;;3.78;2.28;;;;;;;-145.61;100.00;68426.72;4990637;28;20077;-89
2021/01/13 10:57:49;;;;;;;4.30;2.13;;;;;;;-145.61;100.00;68426.72;4998718;28;20030;-88
2021/01/13 11:00:16;;;;;;;6.65;2.80;;;;;;;-145.61;100.00;68426.72;4986766;28;20022;-89
2021/01/13 11:02:59;;;;;;;3.20;2.60;;;;;;;-145.61;100.00;68426.72;4988406;28;20031;-89
2021/01/13 11:05:26;;;;;;;9.68;2.92;;;;;;;-145.61;100.00;68426.72;4986014;28;20418;-88
2021/01/13 11:07:54;;;;;;;2.70;2.20;;;;;;;-145.61;100.00;68426.72;4993279;28;20018;-89
2021/01/13 11:10:22;;;;;;;5.25;2.60;;;;;;;-145.61;100.00;68426.72;4996934;28;20029;-89
2021/01/13 11:12:58;;;;;;;3.65;2.40;;;;;;;-145.61;100.00;68426.72;5002101;28;20037;-87
2021/01/13 11:15:24;;;;;;;6.20;2.35;;;;;;;-145.61;100.00;68426.72;4984593;28;20034;-87
2021/01/13 11:17:54;;;;;;;6.32;2.92;;;;;;;-145.61;100.00;68426.72;4989321;28;20049;-87
2021/01/13 11:20:22;;;;;;;5.35;2.53;;;;;;;-145.61;100.00;68426.72;4981560;28;20031;-87
2021/01/13 11:22:49;;;;;;;4.43;2.45;;;;;;;-145.61;100.00;68426.72;4983440;28;20038;-87
2021/01/13 11:25:25;;;;;;;3.92;2.00;;;;;;;-145.61;100.00;68426.72;4997462;28;20034;-88
2021/01/13 11:27:59;;;;;;;3.55;2.22;;;;;;;-145.61;100.00;68426.72;5001823;28;20418;-86
2021/01/13 11:30:26;;;;;;;2.92;2.22;;;;;;;-145.61;100.00;68426.72;4977588;28;20054;-87
2021/01/13 11:32:53;;;;;;;3.58;2.28;;;;;;;-145.61;100.00;68426.72;4992436;28;20031;-87
2021/01/13 11:35:46;;;;;;;4.40;2.47;;;;;;;-145.61;100.00;68426.72;4993638;28;20386;-88
2021/01/13 11:38:18;;;;;;;3.15;2.42;;;;;;;-145.61;100.00;68426.72;4989928;28;20030;-87
2021/01/13 11:41:19;;;;;;;3.13;2.05;;;;;;;-145.61;100.00;68426.72;4994645;28;20061;-89
2021/01/13 11:44:22;;;;;;;3.03;2.53;;;;;;;-145.61;100.00;68426.72;4981110;28;20038;-87
2021/01/13 11:46:56;;;;;;;14.05;8.10;;;;;;;-145.61;100.00;68426.72;4986405;28;20022;-87